createdAt,value
2019-04-20T00:01:51.353Z,63.10
2019-04-20T00:04:27.207Z,63.20
2019-04-20T00:06:54.725Z,63.20
2019-04-20T00:09:26.605Z,63.50
2019-04-20T00:12:04.081Z,63.30
2019-04-20T00:14:30.963Z,63.20
2019-04-20T00:16:57.246Z,63.30
2019-04-20T00:19:35.495Z,63.20
2019-04-20T00:22:13.936Z,63.50
2019-04-20T00:24:59.356Z,63.00
2019-04-20T00:27:45.791Z,63.30
2019-04-20T00:30:06.731Z,63.80
2019-04-20T00:32:42.365Z,64.50
2019-04-20T00:34:55.867Z,64.90
2019-04-20T00:37:25.435Z,65.30
2019-04-20T00:39:55.973Z,66.10
2019-04-20T00:42:34.080Z,66.90
2019-04-20T00:45:05.642Z,67.20
2019-04-20T00:47:37.283Z,67.40
2019-04-20T00:50:19.554Z,67.70
2019-04-20T00:52:47.183Z,67.80
2019-04-20T00:55:02.424Z,67.90
2019-04-20T00:57:41.843Z,68.10
2019-04-20T01:00:21.539Z,68.10
2019-04-20T01:02:45.549Z,68.50
2019-04-20T01:05:22.891Z,68.60
2019-04-20T01:07:59.897Z,68.80
2019-04-20T01:10:30.287Z,69.00
2019-04-20T01:13:01.882Z,69.20
2019-04-20T01:15:38.684Z,69.60
2019-04-20T01:17:58.991Z,69.60
2019-04-20T01:20:28.347Z,70.80
2019-04-20T01:23:04.855Z,71.00
2019-04-20T01:25:34.966Z,71.00
2019-04-20T01:28:11.938Z,70.90
2019-04-20T01:30:40.609Z,70.80
2019-04-20T01:33:16.327Z,70.80
2019-04-20T01:35:51.869Z,70.60
2019-04-20T01:38:22.368Z,70.70
2019-04-20T01:40:38.069Z,70.70
2019-04-20T01:43:08.003Z,70.90
2019-04-20T01:45:40.459Z,71.20
2019-04-20T01:48:09.888Z,71.50
2019-04-20T01:50:49.861Z,71.90
2019-04-20T01:53:57.083Z,72.30
2019-04-20T01:56:19.029Z,72.60
2019-04-20T01:59:10.560Z,72.90
2019-04-20T02:01:55.677Z,73.10
2019-04-20T02:04:33.915Z,73.40
2019-04-20T02:07:01.353Z,73.90
2019-04-20T02:09:32.458Z,74.40
2019-04-20T02:12:07.647Z,74.70
2019-04-20T02:14:40.504Z,75.00
2019-04-20T02:17:09.550Z,75.20
2019-04-20T02:19:48.857Z,75.20
2019-04-20T02:22:17.914Z,75.30
2019-04-20T02:24:37.016Z,75.20
2019-04-20T02:27:06.632Z,75.20
2019-04-20T02:29:58.268Z,75.10
2019-04-20T02:35:18.309Z,75.10
2019-04-20T02:38:15.167Z,75.00
2019-04-20T02:40:39.746Z,75.50
2019-04-20T02:50:40.076Z,76.10
2019-04-20T02:53:17.012Z,76.30
2019-04-20T02:55:40.315Z,76.40
2019-04-20T02:58:09.344Z,76.50
2019-04-20T03:00:33.620Z,76.60
2019-04-20T03:02:55.892Z,76.80
2019-04-20T03:05:28.239Z,77.10
2019-04-20T03:08:05.680Z,77.30
2019-04-20T03:10:42.971Z,77.50
2019-04-20T03:13:09.870Z,77.60
2019-04-20T03:15:37.894Z,78.00
2019-04-20T03:18:10.210Z,78.20
2019-04-20T03:20:43.514Z,78.30
2019-04-20T03:23:26.132Z,78.70
2019-04-20T03:26:00.699Z,78.80
2019-04-20T03:28:25.883Z,79.20
2019-04-20T03:34:05.781Z,79.60
2019-04-20T03:36:18.298Z,79.60
2019-04-20T03:38:36.315Z,79.50
2019-04-20T03:41:03.971Z,79.60
2019-04-20T03:43:22.273Z,79.70
2019-04-20T03:45:57.992Z,80.00
2019-04-20T03:48:41.525Z,80.20
2019-04-20T03:51:22.128Z,80.40
2019-04-20T03:54:03.417Z,80.70
2019-04-20T03:56:40.575Z,80.90
2019-04-20T03:59:27.947Z,81.10
2019-04-20T04:02:45.644Z,81.20
2019-04-20T04:05:06.231Z,81.60
2019-04-20T04:07:26.526Z,81.70
2019-04-20T04:10:04.682Z,81.90
2019-04-20T04:13:05.231Z,81.90
2019-04-20T04:15:36.156Z,81.90
2019-04-20T04:18:14.574Z,82.10
2019-04-20T04:20:49.247Z,82.20
2019-04-20T04:23:24.633Z,82.30
2019-04-20T04:26:00.712Z,82.40
2019-04-20T04:28:28.498Z,82.50
2019-04-20T04:31:04.169Z,82.30
2019-04-20T04:33:53.269Z,82.10
2019-04-20T04:36:00.538Z,82.00
2019-04-20T04:38:37.340Z,81.90
2019-04-20T04:43:38.880Z,81.80
2019-04-20T04:45:49.302Z,81.90
2019-04-20T04:48:25.194Z,82.00
2019-04-20T04:50:57.368Z,81.90
2019-04-20T04:53:31.269Z,82.10
2019-04-20T04:55:59.463Z,82.30
2019-04-20T04:58:23.668Z,82.60
2019-04-20T05:00:56.962Z,82.20
2019-04-20T05:03:45.189Z,82.50
2019-04-20T05:06:33.117Z,82.90
2019-04-20T05:08:53.319Z,83.10
2019-04-20T05:11:18.011Z,83.10
2019-04-20T05:13:55.699Z,83.20
2019-04-20T05:16:38.520Z,83.30
2019-04-20T05:19:13.457Z,83.00
2019-04-20T05:22:08.141Z,82.90
2019-04-20T05:24:42.700Z,82.50
2019-04-20T05:27:50.895Z,82.40
2019-04-20T05:30:05.672Z,81.90
2019-04-20T05:32:44.616Z,81.40
2019-04-20T05:35:26.956Z,81.40
2019-04-20T05:40:34.770Z,79.40
2019-04-20T05:43:17.711Z,78.70
2019-04-20T05:45:41.414Z,77.80
2019-04-20T05:48:16.400Z,76.50
2019-04-20T05:50:48.235Z,75.70
2019-04-20T05:53:27.642Z,75.80
2019-04-20T05:55:49.316Z,75.20
2019-04-20T05:58:29.447Z,74.30
2019-04-20T06:01:01.140Z,73.10
2019-04-20T06:03:26.102Z,72.40
2019-04-20T06:06:06.392Z,72.60
2019-04-20T06:08:41.671Z,72.70
2019-04-20T06:11:02.007Z,71.70
2019-04-20T06:13:44.328Z,71.00
2019-04-20T06:16:29.887Z,70.60
2019-04-20T06:19:10.268Z,69.40
2019-04-20T06:21:43.840Z,69.20
2019-04-20T06:24:24.934Z,68.40
2019-04-20T06:29:20.619Z,67.40
2019-04-20T06:31:57.687Z,67.50
2019-04-20T06:37:06.731Z,67.00
2019-04-20T06:39:56.741Z,66.20
2019-04-20T06:44:34.078Z,64.70
2019-04-20T06:47:11.677Z,64.70
2019-04-20T06:49:38.032Z,64.30
2019-04-20T06:52:36.752Z,63.80
2019-04-20T06:55:14.321Z,63.60
2019-04-20T06:57:54.759Z,63.00
2019-04-20T07:00:18.167Z,61.80
2019-04-20T07:03:05.740Z,61.70
2019-04-20T07:08:02.014Z,60.80
2019-04-20T07:10:34.476Z,61.20
2019-04-20T07:12:56.790Z,60.00
2019-04-20T07:15:29.147Z,60.40
2019-04-20T07:18:08.195Z,60.50
2019-04-20T07:21:09.897Z,60.70
2019-04-20T07:23:26.515Z,61.00
2019-04-20T07:25:54.198Z,60.60
2019-04-20T07:28:32.550Z,60.20
2019-04-20T07:30:55.481Z,60.20
2019-04-20T07:33:32.354Z,59.90
2019-04-20T07:35:56.013Z,59.90
2019-04-20T07:38:36.215Z,60.00
2019-04-20T07:41:00.015Z,59.80
2019-04-20T07:43:30.102Z,59.80
2019-04-20T07:46:12.025Z,59.90
2019-04-20T07:48:36.850Z,59.70
2019-04-20T07:50:58.246Z,58.60
2019-04-20T07:53:33.283Z,58.70
2019-04-20T07:56:11.476Z,58.70
2019-04-20T07:58:31.688Z,58.70
2019-04-20T08:01:26.340Z,58.80
2019-04-20T08:03:58.746Z,58.00
2019-04-20T08:06:18.122Z,57.80
2019-04-20T08:08:58.660Z,57.00
2019-04-20T08:11:36.680Z,56.70
2019-04-20T08:14:08.900Z,56.50
2019-04-20T08:19:08.425Z,56.60
2019-04-20T08:24:07.207Z,55.70
2019-04-20T08:26:26.944Z,54.20
2019-04-20T08:29:00.191Z,54.40
2019-04-20T08:31:43.459Z,54.50
2019-04-20T08:34:31.468Z,54.40
2019-04-20T08:36:58.543Z,53.90
2019-04-20T08:39:57.448Z,53.40
2019-04-20T08:42:00.558Z,52.50
2019-04-20T08:51:01.742Z,52.30
2019-04-20T08:53:39.376Z,52.90
2019-04-20T08:55:55.308Z,52.30
2019-04-20T08:58:16.384Z,52.40
2019-04-20T09:00:53.637Z,50.80
2019-04-20T09:03:25.370Z,50.60
2019-04-20T09:06:02.767Z,50.90
2019-04-20T09:08:28.123Z,51.40
2019-04-20T09:11:10.025Z,49.90
2019-04-20T09:13:37.183Z,49.60
2019-04-20T09:15:59.938Z,49.40
2019-04-20T09:24:15.954Z,48.30
2019-04-20T09:26:42.631Z,49.30
2019-04-20T09:29:02.993Z,48.40
2019-04-20T09:31:46.047Z,48.00
2019-04-20T09:37:22.380Z,47.60
2019-04-20T09:40:16.341Z,47.30
2019-04-20T09:42:40.193Z,47.20
2019-04-20T09:45:21.301Z,47.80
2019-04-20T09:47:47.876Z,47.20
2019-04-20T09:50:31.924Z,44.70
2019-04-20T09:53:03.645Z,43.30
2019-04-20T09:55:29.522Z,45.90
2019-04-20T09:58:04.083Z,43.90
2019-04-20T10:00:37.396Z,41.90
2019-04-20T10:02:52.617Z,41.90
2019-04-20T10:05:23.294Z,39.80
2019-04-20T10:07:57.574Z,41.30
2019-04-20T10:10:32.333Z,42.00
2019-04-20T10:12:56.351Z,41.40
2019-04-20T10:15:28.002Z,41.30
2019-04-20T10:17:57.588Z,41.60
2019-04-20T10:20:30.951Z,41.70
2019-04-20T10:22:58.634Z,42.90
2019-04-20T10:25:28.719Z,40.90
2019-04-20T10:27:58.367Z,41.60
2019-04-20T10:30:28.534Z,41.80
2019-04-20T10:32:59.470Z,41.40
2019-04-20T10:35:29.759Z,41.00
2019-04-20T10:38:07.481Z,42.10
2019-04-20T10:40:50.709Z,39.80
2019-04-20T10:43:12.009Z,40.00
2019-04-20T10:45:41.719Z,41.20
2019-04-20T10:48:11.431Z,41.20
2019-04-20T10:50:41.005Z,41.00
2019-04-20T10:53:12.128Z,41.50
2019-04-20T10:55:41.635Z,39.20
2019-04-20T10:58:11.501Z,38.80
2019-04-20T11:00:44.050Z,39.50
2019-04-20T11:03:17.645Z,41.00
2019-04-20T11:06:08.941Z,40.50
2019-04-20T11:08:38.643Z,42.00
2019-04-20T11:11:14.919Z,39.90
2019-04-20T11:13:39.599Z,40.50
2019-04-20T11:16:10.611Z,39.20
2019-04-20T11:18:40.381Z,39.20
2019-04-20T11:21:11.283Z,39.30
2019-04-20T11:23:42.450Z,39.00
2019-04-20T11:26:16.176Z,38.40
2019-04-20T11:28:46.257Z,38.40
2019-04-20T11:31:16.570Z,38.40
2019-04-20T11:33:46.419Z,36.60
2019-04-20T11:36:17.147Z,39.00
2019-04-20T11:38:47.117Z,38.70
2019-04-20T11:41:24.916Z,37.80
2019-04-20T11:43:49.388Z,39.70
2019-04-20T11:46:20.588Z,39.10
2019-04-20T11:48:50.206Z,38.90
2019-04-20T11:51:21.399Z,38.00
2019-04-20T11:53:52.243Z,37.60
2019-04-20T11:56:26.694Z,37.10
2019-04-20T11:58:56.651Z,37.40
2019-04-20T12:01:59.042Z,38.40
2019-04-20T12:04:48.900Z,38.20
2019-04-20T12:07:11.070Z,38.80
2019-04-20T12:09:41.858Z,37.40
2019-04-20T12:12:24.390Z,37.10
2019-04-20T12:14:43.973Z,37.70
2019-04-20T12:17:13.658Z,36.90
2019-04-20T12:19:43.867Z,33.90
2019-04-20T12:22:14.035Z,35.60
2019-04-20T12:24:44.540Z,33.80
2019-04-20T12:27:16.375Z,34.40
2019-04-20T12:29:47.809Z,34.60
2019-04-20T12:32:17.895Z,35.20
2019-04-20T12:34:47.717Z,35.80
2019-04-20T12:37:18.674Z,35.10
2019-04-20T12:39:49.169Z,36.00
2019-04-20T12:42:19.033Z,35.00
2019-04-20T12:44:50.092Z,33.40
2019-04-20T12:47:21.616Z,32.70
2019-04-20T12:49:51.635Z,33.60
2019-04-20T12:52:22.687Z,35.60
2019-04-20T12:54:52.636Z,37.90
2019-04-20T12:57:22.690Z,36.00
2019-04-20T12:59:52.511Z,35.40
2019-04-20T13:02:23.416Z,35.30
2019-04-20T13:04:53.369Z,36.40
2019-04-20T13:07:24.675Z,35.30
2019-04-20T13:09:54.857Z,35.40
2019-04-20T13:15:46.567Z,35.30
2019-04-20T13:18:19.204Z,35.20
2019-04-20T13:20:53.578Z,34.30
2019-04-20T13:23:22.928Z,36.00
2019-04-20T13:25:52.959Z,35.00
2019-04-20T13:28:23.363Z,36.00
2019-04-20T13:30:53.640Z,36.60
2019-04-20T13:33:24.944Z,36.30
2019-04-20T13:35:54.659Z,34.90
2019-04-20T13:38:24.333Z,34.40
2019-04-20T13:40:55.726Z,35.40
2019-04-20T13:43:25.805Z,37.50
2019-04-20T13:45:55.406Z,35.70
2019-04-20T13:48:26.666Z,36.60
2019-04-20T13:50:56.415Z,35.80
2019-04-20T13:53:27.238Z,35.00
2019-04-20T13:55:58.213Z,35.60
2019-04-20T13:58:45.743Z,35.40
2019-04-20T14:04:26.589Z,35.40
2019-04-20T14:06:57.561Z,35.60
2019-04-20T14:09:29.583Z,35.50
2019-04-20T14:12:13.217Z,34.60
2019-04-20T14:14:33.063Z,34.30
2019-04-20T14:17:03.325Z,36.30
2019-04-20T14:19:34.821Z,35.10
2019-04-20T14:22:06.028Z,36.30
2019-04-20T14:24:37.141Z,34.40
2019-04-20T14:27:06.804Z,34.30
2019-04-20T14:29:37.017Z,35.60
2019-04-20T14:32:10.248Z,35.40
2019-04-20T14:34:47.050Z,35.40
2019-04-20T14:37:17.133Z,35.60
2019-04-20T14:39:48.069Z,34.50
2019-04-20T14:42:41.825Z,35.40
2019-04-20T14:45:04.741Z,35.60
2019-04-20T14:47:34.245Z,33.20
2019-04-20T14:50:05.297Z,36.40
2019-04-20T14:52:35.477Z,35.50
2019-04-20T14:55:05.871Z,34.60
2019-04-20T14:57:35.425Z,34.60
2019-04-20T15:00:12.109Z,32.90
2019-04-20T15:02:41.481Z,34.90
2019-04-20T15:05:10.943Z,33.50
2019-04-20T15:07:40.742Z,34.90
2019-04-20T15:10:10.968Z,33.00
2019-04-20T15:12:48.856Z,31.70
2019-04-20T15:15:12.616Z,33.60
2019-04-20T15:17:47.859Z,35.20
2019-04-20T15:20:27.646Z,34.70
2019-04-20T15:22:59.397Z,34.50
2019-04-20T15:25:29.709Z,35.50
2019-04-20T15:28:00.488Z,36.00
2019-04-20T15:30:34.132Z,35.00
2019-04-20T15:33:05.047Z,36.50
2019-04-20T15:35:34.797Z,35.10
2019-04-20T15:38:05.153Z,36.60
2019-04-20T15:41:02.981Z,36.30
2019-04-20T15:43:35.197Z,36.50
2019-04-20T15:46:51.466Z,36.50
2019-04-20T15:49:26.300Z,37.00
2019-04-20T15:51:55.799Z,36.30
2019-04-20T15:54:25.459Z,37.40
2019-04-20T15:57:01.237Z,37.70
2019-04-20T15:59:48.522Z,39.00
2019-04-20T16:02:33.523Z,38.50
2019-04-20T16:05:37.561Z,38.50
2019-04-20T16:08:21.829Z,37.20
2019-04-20T16:10:53.113Z,38.20
2019-04-20T16:13:31.346Z,36.90
2019-04-20T16:15:54.027Z,37.30
2019-04-20T16:18:23.485Z,36.40
2019-04-20T16:21:01.626Z,37.20
2019-04-20T16:23:24.942Z,36.60
2019-04-20T16:26:13.614Z,36.50
2019-04-20T16:28:43.754Z,36.20
2019-04-20T16:31:15.402Z,36.50
2019-04-20T16:33:48.490Z,35.90
2019-04-20T16:36:18.767Z,35.80
2019-04-20T16:38:48.147Z,36.00
2019-04-20T16:41:20.063Z,37.10
2019-04-20T16:43:50.294Z,35.80
2019-04-20T16:46:23.839Z,36.40
2019-04-20T16:48:55.074Z,36.60
2019-04-20T16:51:25.120Z,36.70
2019-04-20T16:53:56.037Z,36.80
2019-04-20T16:56:26.541Z,36.90
2019-04-20T16:59:03.512Z,38.20
2019-04-20T17:01:27.710Z,37.60
2019-04-20T17:04:06.582Z,38.10
2019-04-20T17:06:29.808Z,38.90
2019-04-20T17:08:59.373Z,38.20
2019-04-20T17:11:34.072Z,38.80
2019-04-20T17:14:03.695Z,38.50
2019-04-20T17:16:33.589Z,38.80
2019-04-20T17:19:03.837Z,38.60
2019-04-20T17:21:34.222Z,39.40
2019-04-20T17:24:04.783Z,39.00
2019-04-20T17:26:43.501Z,39.60
2019-04-20T17:29:23.945Z,39.90
2019-04-20T17:32:05.544Z,39.80
2019-04-20T17:34:46.806Z,40.10
2019-04-20T17:37:06.704Z,40.00
2019-04-20T17:39:54.189Z,40.60
2019-04-20T17:42:25.119Z,40.30
2019-04-20T17:44:49.236Z,40.20
2019-04-20T17:47:31.412Z,40.50
2019-04-20T17:50:08.353Z,40.60
2019-04-20T17:52:40.348Z,40.70
2019-04-20T17:54:53.645Z,41.50
2019-04-20T17:57:23.501Z,41.90
2019-04-20T18:00:03.091Z,41.30
2019-04-20T18:03:04.577Z,41.90
2019-04-20T18:05:49.958Z,41.10
2019-04-20T18:08:20.728Z,42.30
2019-04-20T18:10:47.256Z,42.20
2019-04-20T18:13:12.049Z,41.90
2019-04-20T18:15:52.815Z,42.20
2019-04-20T18:18:42.120Z,42.40
2019-04-20T18:21:14.995Z,42.90
2019-04-20T18:23:47.834Z,43.50
2019-04-20T18:26:38.382Z,43.80
2019-04-20T18:29:20.130Z,44.20
2019-04-20T18:31:35.627Z,44.40
2019-04-20T18:34:23.593Z,44.40
2019-04-20T18:36:51.472Z,44.80
2019-04-20T18:39:29.170Z,44.90
2019-04-20T18:41:57.159Z,45.30
2019-04-20T18:44:30.626Z,45.30
2019-04-20T18:47:18.196Z,45.40
2019-04-20T18:53:00.045Z,45.70
2019-04-20T18:55:41.158Z,45.60
2019-04-20T18:58:01.740Z,45.60
2019-04-20T19:00:36.411Z,45.40
2019-04-20T19:03:13.281Z,45.50
2019-04-20T19:05:35.658Z,45.80
2019-04-20T19:08:10.377Z,45.80
2019-04-20T19:10:40.007Z,45.80
2019-04-20T19:13:25.346Z,45.80
2019-04-20T19:16:12.033Z,46.50
2019-04-20T19:31:45.825Z,46.10
2019-04-20T19:34:26.005Z,46.10
2019-04-20T19:58:02.512Z,46.00
2019-04-20T20:00:54.228Z,46.40
2019-04-20T20:03:23.964Z,46.10
2019-04-20T20:05:54.766Z,46.50
2019-04-20T20:08:29.506Z,46.50
2019-04-20T20:11:02.773Z,46.40
2019-04-20T20:13:41.220Z,46.40
2019-04-20T20:16:10.478Z,46.40
2019-04-20T20:18:48.815Z,47.10
2019-04-20T20:21:20.031Z,46.40
2019-04-20T20:23:38.366Z,46.30
2019-04-20T20:26:16.469Z,46.50
2019-04-20T20:28:46.506Z,46.60
2019-04-20T20:31:21.929Z,46.70
2019-04-20T20:33:56.432Z,46.50
2019-04-20T20:36:19.417Z,46.50
2019-04-20T20:38:49.276Z,47.40
2019-04-20T20:41:24.990Z,47.20
2019-04-20T20:43:56.516Z,47.30
2019-04-20T20:46:27.440Z,47.70
2019-04-20T20:49:22.312Z,47.90
2019-04-20T20:51:44.283Z,48.40
2019-04-20T20:54:02.829Z,48.70
2019-04-20T20:56:29.035Z,49.40
2019-04-20T20:59:00.775Z,49.90
2019-04-20T21:01:29.189Z,50.50
2019-04-20T21:03:56.711Z,50.70
2019-04-20T21:06:26.675Z,51.30
2019-04-20T21:08:58.303Z,51.70
2019-04-20T21:11:31.422Z,52.20
2019-04-20T21:13:59.317Z,52.60
2019-04-20T21:16:31.910Z,53.00
2019-04-20T21:19:20.083Z,53.50
2019-04-20T21:21:41.294Z,53.80
2019-04-20T21:24:14.361Z,54.10
2019-04-20T21:26:44.098Z,54.30
2019-04-20T21:29:13.605Z,54.60
2019-04-20T21:31:53.751Z,54.70
2019-04-20T21:34:18.646Z,55.00
2019-04-20T21:36:45.334Z,55.10
2019-04-20T21:39:23.516Z,55.30
2019-04-20T21:41:51.302Z,55.50
2019-04-20T21:44:24.282Z,55.60
2019-04-20T21:46:53.979Z,55.80
2019-04-20T21:49:36.220Z,56.10
2019-04-20T21:51:58.580Z,56.20
2019-04-20T21:54:22.283Z,56.30
2019-04-20T21:56:59.844Z,55.70
2019-04-20T21:59:32.131Z,56.20
2019-04-20T22:02:07.791Z,56.20
2019-04-20T22:04:29.597Z,56.20
2019-04-20T22:07:00.369Z,56.10
2019-04-20T22:09:40.039Z,56.40
2019-04-20T22:12:05.637Z,56.40
2019-04-20T22:14:35.692Z,56.90
2019-04-20T22:17:05.516Z,57.10
2019-04-20T22:19:44.098Z,57.20
2019-04-20T22:22:18.466Z,57.30
2019-04-20T22:24:50.593Z,57.40
2019-04-20T22:27:15.869Z,57.50
2019-04-20T22:29:39.649Z,57.60
2019-04-20T22:32:13.079Z,57.70
2019-04-20T22:34:40.191Z,57.90
2019-04-20T22:37:15.260Z,58.00
2019-04-20T22:39:49.904Z,58.10
2019-04-20T22:42:18.214Z,58.20
2019-04-20T22:44:54.686Z,58.30
2019-04-20T22:47:23.256Z,58.40
2019-04-20T22:50:12.858Z,58.50
2019-04-20T22:52:42.190Z,58.70
2019-04-20T22:55:16.821Z,58.90
2019-04-20T22:57:41.931Z,58.90
2019-04-20T23:00:05.353Z,58.90
2019-04-20T23:02:33.350Z,58.90
2019-04-20T23:05:02.982Z,59.00
2019-04-20T23:07:34.657Z,59.20
2019-04-20T23:10:05.458Z,59.30
2019-04-20T23:12:40.027Z,59.20
2019-04-20T23:15:10.392Z,59.30
2019-04-20T23:17:45.327Z,59.50
2019-04-20T23:20:17.176Z,59.10
2019-04-20T23:22:46.139Z,60.30
2019-04-20T23:25:15.299Z,60.00
2019-04-20T23:27:45.780Z,60.00
2019-04-20T23:30:23.626Z,60.10
2019-04-20T23:32:49.663Z,60.00
2019-04-20T23:35:22.732Z,60.20
2019-04-20T23:37:50.846Z,60.30
2019-04-20T23:40:29.866Z,60.20
2019-04-20T23:43:08.895Z,60.60
2019-04-20T23:45:52.669Z,60.60
2019-04-20T23:48:34.864Z,60.60
2019-04-20T23:51:17.771Z,60.80
2019-04-20T23:53:48.093Z,60.60
2019-04-20T23:56:05.885Z,60.60
2019-04-20T23:58:42.867Z,60.80
